Latest Coastal Weather Observations for McCluer Island

IDD60701

Issued at 10:21 pm CST Friday 26 May 2017 (issued every 10 minutes, with the page automatically refreshed every 10 minutes)

About coastal observations | Map of coastal stations | Coastal observations for NT | Marine services | Other Formats
Station Details ID: 014274 Name: MCCLUER ISLAND Lat: -11.05 Lon: 132.98 Height: 1.4 m
Data from the previous 72 hours. | See also: Recent months at McCluer Island
Date/Time
CST
Temp
°C
Wind Pressure Rain since
9am
mm
Weather Cloud Vis
km
Sea
Height
m
Swell
Dir  Spd
kts
Gust
kts
hPa Trend Height
m
Period
s
Dir
26/10:00pm 28.1 E 21 24 1012.2 - 0.0 - - - - - - -
26/09:30pm 27.8 E 18 22 1012.2 - 0.0 - - - - - - -
26/09:00pm 28.1 E 20 23 1012.1 - 0.0 - - - - - - -
26/08:30pm 28.0 E 17 20 1012.0 - 0.0 - - - - - - -
26/08:00pm 28.0 E 18 21 1011.6 - 0.0 - - - - - - -
26/07:30pm 27.9 E 18 21 1011.4 - 0.0 - - - - - - -
26/07:00pm 27.9 E 19 23 1011.1 - 0.0 - - - - - - -
26/06:30pm 27.8 E 17 19 1010.8 - 0.0 - - - - - - -
26/06:00pm 27.7 E 16 20 1010.6 - 0.0 - - - - - - -
26/05:30pm 27.8 ESE 16 19 1010.4 - 0.0 - - - - - - -
26/05:00pm 28.0 ESE 15 18 1010.0 - 0.0 - - - - - - -
26/04:30pm 28.2 ESE 16 19 1009.9 - 0.0 - - - - - - -
26/04:00pm 28.5 ESE 17 19 1009.9 - 0.0 - - - - - - -
26/03:30pm 28.0 ESE 17 21 1009.9 - 0.0 - - - - - - -
26/03:00pm 28.1 ESE 17 20 1010.1 - 0.0 - - - - - - -
26/02:30pm 28.5 ESE 18 21 1010.4 - 0.0 - - - - - - -
26/02:00pm 28.7 ESE 17 20 1010.8 - 0.0 - - - - - - -
26/01:30pm 28.3 ESE 19 22 1010.9 - 0.0 - - - - - - -
26/01:00pm 28.4 ESE 19 22 1011.3 - 0.0 - - - - - - -
26/12:30pm 28.1 ESE 20 23 1011.6 - 0.0 - - - - - - -
26/12:00pm 28.4 ESE 20 25 1012.0 - 0.0 - - - - - - -
26/11:30am 27.8 ESE 22 26 1012.2 - 0.0 - - - - - - -
26/11:00am 27.9 ESE 21 25 1012.5 - 0.0 - - - - - - -
26/10:30am 27.5 ESE 20 24 1012.8 - 0.0 - - - - - - -
26/10:00am 27.5 ESE 20 24 1012.8 - 0.0 - - - - - - -
26/09:30am 28.0 ESE 21 26 1012.7 - 0.0 - - - - - - -
26/09:00am 27.3 SE 17 22 1012.8 - 0.0 - - - - - - -
26/08:30am 26.9 SE 16 21 1012.5 - 0.0 - - - - - - -
26/08:00am 26.5 SE 15 20 1012.1 - 0.0 - - - - - - -
26/07:30am 26.5 SE 14 19 1011.8 - 0.0 - - - - - - -
26/07:00am 26.8 ESE 18 22 1011.5 - 0.0 - - - - - - -
26/06:30am 27.1 ESE 20 23 1011.2 - 0.0 - - - - - - -
26/06:00am 27.3 ESE 19 22 1010.9 - 0.0 - - - - - - -
26/05:30am 27.5 ESE 19 22 1010.7 - 0.0 - - - - - - -
26/05:00am 27.5 ESE 18 22 1010.4 - 0.0 - - - - - - -
26/04:30am 27.4 ESE 18 24 1010.5 - 0.0 - - - - - - -
26/04:00am 27.6 ESE 21 25 1010.3 - 0.0 - - - - - - -
26/03:30am 27.5 ESE 20 25 1010.2 - 0.0 - - - - - - -
26/03:00am 27.0 ESE 19 24 1010.4 - 0.0 - - - - - - -
26/02:30am 27.5 ESE 24 31 1010.4 - 0.0 - - - - - - -
26/02:00am 27.3 ESE 24 29 1010.7 - 0.0 - - - - - - -
26/01:30am 27.7 ESE 24 28 1010.9 - 0.0 - - - - - - -
26/01:00am 27.6 E 23 28 1011.2 - 0.0 - - - - - - -
26/12:30am 27.6 E 22 26 1011.3 - 0.0 - - - - - - -
26/12:00am 27.7 E 20 25 1011.3 - 0.0 - - - - - - -
 
Date/Time
CST
Temp
°C
Wind Pressure Rain since
9am
mm
Weather Cloud Vis
km
Sea
Height
m
Swell
Dir  Spd
kts
Gust
kts
hPa Trend Height
m
Period
s
Dir
25/11:30pm 27.7 E 21 25 1011.4 - 0.0 - - - - - - -
25/11:00pm 27.7 E 20 23 1011.4 - 0.0 - - - - - - -
25/10:30pm 27.9 E 19 23 1011.6 - 0.0 - - - - - - -
25/10:00pm 28.0 E 19 23 1011.6 - 0.0 - - - - - - -
25/09:30pm 28.1 E 20 23 1011.6 - 0.0 - - - - - - -
25/09:00pm 28.1 E 19 21 1011.5 - 0.0 - - - - - - -
25/08:30pm 28.1 E 19 22 1011.2 - 0.0 - - - - - - -
25/08:00pm 28.3 E 18 21 1010.9 - 0.0 - - - - - - -
25/07:30pm 28.3 E 18 21 1010.4 - 0.0 - - - - - - -
25/07:00pm 28.3 E 17 21 1010.2 - 0.0 - - - - - - -
25/06:30pm 28.5 E 17 20 1010.0 - 0.0 - - - - - - -
25/06:00pm 28.4 E 18 21 1009.8 - 0.0 - - - - - - -
25/05:30pm 28.6 E 18 20 1009.7 - 0.0 - - - - - - -
25/05:00pm 28.5 E 18 22 1009.8 - 0.0 - - - - - - -
25/04:30pm 28.5 ESE 19 22 1009.8 - 0.0 - - - - - - -
25/04:00pm 28.7 ESE 20 23 1009.8 - 0.0 - - - - - - -
25/03:30pm 28.8 ESE 20 24 1009.8 - 0.0 - - - - - - -
25/03:00pm 28.9 ESE 20 22 1009.9 - 0.0 - - - - - - -
25/02:30pm 28.9 ESE 20 23 1010.1 - 0.0 - - - - - - -
25/02:00pm 28.7 ESE 18 22 1010.4 - 0.0 - - - - - - -
25/01:30pm 28.7 ESE 18 21 1010.8 - 0.0 - - - - - - -
25/01:00pm 29.0 ESE 18 22 1011.4 - 0.0 - - - - - - -
25/12:30pm 28.9 ESE 20 24 1011.7 - 0.0 - - - - - - -
25/12:00pm 29.5 ESE 21 25 1012.0 - 0.0 - - - - - - -
25/11:30am 28.8 ESE 21 24 1012.4 - 0.0 - - - - - - -
25/11:00am 28.7 ESE 21 25 1012.6 - 0.0 - - - - - - -
25/10:30am 28.5 ESE 21 25 1012.8 - 0.0 - - - - - - -
25/10:00am 28.5 ESE 22 26 1012.7 - 0.0 - - - - - - -
25/09:30am 28.0 ESE 22 25 1012.4 - 0.0 - - - - - - -
25/09:00am 28.0 ESE 18 23 1012.3 - 0.0 - - - - - - -
25/08:30am 27.3 SE 17 22 1012.1 - 0.0 - - - - - - -
25/08:00am 26.6 SE 14 18 1011.8 - 0.0 - - - - - - -
25/07:30am 26.3 SE 13 17 1011.5 - 0.0 - - - - - - -
25/07:00am 26.3 ESE 14 20 1011.1 - 0.0 - - - - - - -
25/06:30am 26.5 SE 12 17 1010.9 - 0.0 - - - - - - -
25/06:00am 26.6 SE 14 17 1010.8 - 0.0 - - - - - - -
25/05:30am 26.5 SE 13 17 1010.7 - 0.0 - - - - - - -
25/05:00am 26.7 SE 15 20 1010.6 - 0.0 - - - - - - -
25/04:30am 26.4 SE 14 19 1010.6 - 0.0 - - - - - - -
25/04:00am 26.6 SE 12 20 1010.6 - 0.0 - - - - - - -
25/03:30am 27.2 SE 17 23 1010.6 - 0.0 - - - - - - -
25/03:00am 27.2 SE 16 22 1010.6 - 0.0 - - - - - - -
25/02:30am 27.6 SE 19 25 1010.7 - 0.0 - - - - - - -
25/02:00am 27.6 SE 15 21 1011.0 - 0.0 - - - - - - -
25/01:30am 27.6 ESE 17 19 1011.2 - 0.0 - - - - - - -
25/01:00am 27.7 ESE 17 21 1011.5 - 0.0 - - - - - - -
25/12:30am 27.6 ESE 16 19 1011.5 - 0.0 - - - - - - -
25/12:00am 27.7 ESE 16 19 1011.5 - 0.0 - - - - - - -
 
Date/Time
CST
Temp
°C
Wind Pressure Rain since
9am
mm
Weather Cloud Vis
km
Sea
Height
m
Swell
Dir  Spd
kts
Gust
kts
hPa Trend Height
m
Period
s
Dir
24/11:30pm 27.7 ESE 17 20 1011.7 - 0.0 - - - - - - -
24/11:00pm 27.6 E 15 18 1011.8 - 0.0 - - - - - - -
24/10:30pm 27.7 ESE 14 16 1012.0 - 0.0 - - - - - - -
24/10:00pm 27.9 ESE 14 16 1012.1 - 0.0 - - - - - - -
24/09:30pm 28.0 E 15 17 1012.0 - 0.0 - - - - - - -
24/09:00pm 28.1 E 17 20 1011.7 - 0.0 - - - - - - -
24/08:30pm 28.1 E 18 21 1011.5 - 0.0 - - - - - - -
24/08:00pm 28.0 E 20 23 1011.3 - 0.0 - - - - - - -
24/07:30pm 27.9 E 19 22 1010.9 - 0.0 - - - - - - -
24/07:00pm 27.9 ESE 19 24 1010.8 - 0.0 - - - - - - -
24/06:30pm 27.8 ESE 20 22 1010.6 - 0.0 - - - - - - -
24/06:00pm 27.9 ESE 19 23 1010.3 - 0.0 - - - - - - -
24/05:30pm 27.8 ESE 20 23 1009.9 - 0.0 - - - - - - -
24/05:00pm 28.3 ESE 19 22 1009.8 - 0.0 - - - - - - -
24/04:30pm 28.3 ESE 20 22 1009.5 - 0.0 - - - - - - -
24/04:00pm 28.6 ESE 19 22 1009.4 - 0.0 - - - - - - -
24/03:30pm 29.0 ESE 19 22 1009.5 - 0.0 - - - - - - -
24/03:00pm 29.2 ESE 18 22 1009.7 - 0.0 - - - - - - -
24/02:30pm 29.4 ESE 20 24 1010.0 - 0.0 - - - - - - -
24/02:00pm 29.0 ESE 21 24 1010.4 - 0.0 - - - - - - -
24/01:30pm 29.3 ESE 21 26 1010.6 - 0.0 - - - - - - -
24/01:00pm 29.0 ESE 20 22 1011.0 - 0.0 - - - - - - -
24/12:30pm 29.1 ESE 19 22 1011.5 - 0.0 - - - - - - -
24/12:00pm 29.1 ESE 19 22 1011.9 - 0.0 - - - - - - -
24/11:30am 29.0 ESE 19 22 1012.2 - 0.0 - - - - - - -
24/11:00am 29.0 ESE 19 22 1012.5 - 0.0 - - - - - - -
24/10:30am 28.9 ESE 19 22 1012.9 - 0.0 - - - - - - -
24/10:00am 28.5 ESE 19 21 1013.0 - 0.0 - - - - - - -
24/09:30am 28.6 E 19 21 1013.2 - 0.0 - - - - - - -
24/09:00am 28.0 E 18 21 1013.3 - 0.0 - - - - - - -
24/08:30am 28.2 E 19 21 1012.9 - 0.0 - - - - - - -
24/08:00am 28.0 ESE 19 22 1012.5 - 0.0 - - - - - - -
24/07:30am 27.8 E 18 20 1012.3 - 0.0 - - - - - - -
24/07:00am 27.6 ESE 18 20 1011.9 - 0.0 - - - - - - -
24/06:30am 27.5 ESE 17 20 1011.3 - 0.0 - - - - - - -
24/06:00am 27.4 ESE 16 19 1011.2 - 0.0 - - - - - - -
24/05:30am 27.3 ESE 16 19 1010.9 - 0.0 - - - - - - -
24/05:00am 27.5 ESE 17 20 1010.6 - 0.0 - - - - - - -
24/04:30am 27.4 ESE 16 21 1010.4 - 0.0 - - - - - - -
24/04:00am 27.4 ESE 17 22 1010.3 - 0.0 - - - - - - -
24/03:30am 27.7 SE 17 24 1010.5 - 0.0 - - - - - - -
24/03:00am 28.0 SE 18 24 1010.6 - 0.0 - - - - - - -
24/02:30am 27.8 SE 17 22 1010.4 - 0.0 - - - - - - -
24/02:00am 27.7 ESE 17 21 1010.4 - 0.0 - - - - - - -
24/01:30am 27.6 ESE 16 19 1010.6 - 0.0 - - - - - - -
24/01:00am 27.8 ESE 16 19 1010.8 - 0.0 - - - - - - -
24/12:30am 27.7 ESE 14 17 1011.1 - 0.0 - - - - - - -
24/12:00am 27.4 ESE 14 16 1011.2 - 0.0 - - - - - - -
 
Date/Time
CST
Temp
°C
Wind Pressure Rain since
9am
mm
Weather Cloud Vis
km
Sea
Height
m
Swell
Dir  Spd
kts
Gust
kts
hPa Trend Height
m
Period
s
Dir
23/11:30pm 27.8 ESE 15 17 1011.4 - 0.0 - - - - - - -
23/11:00pm 27.8 ESE 14 15 1011.7 - 0.0 - - - - - - -
23/10:30pm 27.9 ESE 14 16 1011.7 - 0.0 - - - - - - -

Other Formats:

Comma delimited format used in spreadsheet applications
http://www.bom.gov.au/fwo/IDD60701/IDD60701.94135.axf

JavaScript Object Notation format (JSON) in row-major order
http://www.bom.gov.au/fwo/IDD60701/IDD60701.94135.json